地図

経路データ

SID SEASON NUMBER BASIN SUBBASIN NAME ISO_TIME NATURE LAT LON WMO_WIND WMO_PRES WMO_AGENCY TRACK_TYPE DIST2LAND LANDFALL IFLAG USA_AGENCY USA_ATCF_ID USA_LAT USA_LON USA_RECORD USA_STATUS USA_WIND USA_PRES USA_SSHS USA_R34_NE USA_R34_SE USA_R34_SW USA_R34_NW USA_R50_NE USA_R50_SE USA_R50_SW USA_R50_NW USA_R64_NE USA_R64_SE USA_R64_SW USA_R64_NW USA_POCI USA_ROCI USA_RMW USA_EYE TOKYO_LAT TOKYO_LON TOKYO_GRADE TOKYO_WIND TOKYO_PRES TOKYO_R50_DIR TOKYO_R50_LONG TOKYO_R50_SHORT TOKYO_R30_DIR TOKYO_R30_LONG TOKYO_R30_SHORT TOKYO_LAND CMA_LAT CMA_LON CMA_CAT CMA_WIND CMA_PRES HKO_LAT HKO_LON HKO_CAT HKO_WIND HKO_PRES NEWDELHI_LAT NEWDELHI_LON NEWDELHI_GRADE NEWDELHI_WIND NEWDELHI_PRES NEWDELHI_CI NEWDELHI_DP NEWDELHI_POCI REUNION_LAT REUNION_LON REUNION_TYPE REUNION_WIND REUNION_PRES REUNION_TNUM REUNION_CI REUNION_RMW REUNION_R34_NE REUNION_R34_SE REUNION_R34_SW REUNION_R34_NW REUNION_R50_NE REUNION_R50_SE REUNION_R50_SW REUNION_R50_NW REUNION_R64_NE REUNION_R64_SE REUNION_R64_SW REUNION_R64_NW BOM_LAT BOM_LON BOM_TYPE BOM_WIND BOM_PRES BOM_TNUM BOM_CI BOM_RMW BOM_R34_NE BOM_R34_SE BOM_R34_SW BOM_R34_NW BOM_R50_NE BOM_R50_SE BOM_R50_SW BOM_R50_NW BOM_R64_NE BOM_R64_SE BOM_R64_SW BOM_R64_NW BOM_ROCI BOM_POCI BOM_EYE BOM_POS_METHOD BOM_PRES_METHOD NADI_LAT NADI_LON NADI_CAT NADI_WIND NADI_PRES WELLINGTON_LAT WELLINGTON_LON WELLINGTON_WIND WELLINGTON_PRES DS824_LAT DS824_LON DS824_STAGE DS824_WIND DS824_PRES TD9636_LAT TD9636_LON TD9636_STAGE TD9636_WIND TD9636_PRES TD9635_LAT TD9635_LON TD9635_WIND TD9635_PRES TD9635_ROCI NEUMANN_LAT NEUMANN_LON NEUMANN_CLASS NEUMANN_WIND NEUMANN_PRES MLC_LAT MLC_LON MLC_CLASS MLC_WIND MLC_PRES USA_GUST BOM_GUST BOM_GUST_PER REUNION_GUST REUNION_GUST_PER USA_SEAHGT USA_SEARAD_NE USA_SEARAD_SE USA_SEARAD_SW USA_SEARAD_NW STORM_SPEED STORM_DIR
1909069S14058 1909 10 SI MM NOT_NAMED 1909-03-10 00:00:00 TS -14.3000 58.4000 main 653 628 _________O____ -1 -14.3000 58.4000 TC 7 241
1909069S14058 1909 10 SI MM NOT_NAMED 1909-03-10 03:00:00 TS -14.4601 58.0976 main 628 615 _________P____ -1 -14.4601 58.0976 TC 7 243
1909069S14058 1909 10 SI MM NOT_NAMED 1909-03-10 06:00:00 TS -14.6000 57.8000 main 615 604 _________O____ -1 -14.6000 57.8000 TC 6 247
1909069S14058 1909 10 SI MM NOT_NAMED 1909-03-10 09:00:00 TS -14.7074 57.5074 main 604 593 _________P____ -1 -14.7074 57.5074 TC 6 251
1909069S14058 1909 10 SI MM NOT_NAMED 1909-03-10 12:00:00 TS -14.8000 57.2000 main 593 584 _________O____ -1 -14.8000 57.2000 TC 7 254
1909069S14058 1909 10 SI MM NOT_NAMED 1909-03-10 15:00:00 TS -14.8925 56.8500 main 586 578 _________P____ -1 -14.8925 56.8500 TC 7 254
1909069S14058 1909 10 SI MM NOT_NAMED 1909-03-10 18:00:00 TS -15.0000 56.5000 main 580 571 _________O____ -1 -15.0000 56.5000 TC 7 249
1909069S14058 1909 10 SI MM NOT_NAMED 1909-03-10 21:00:00 TS -15.1349 56.1924 main 576 560 _________P____ -1 -15.1349 56.1924 TC 7 243
1909069S14058 1909 10 SI MM NOT_NAMED 1909-03-11 00:00:00 TS -15.3000 55.9000 main 563 546 _________O____ -1 -15.3000 55.9000 TC 7 238
1909069S14058 1909 10 SI MM NOT_NAMED 1909-03-11 03:00:00 TS -15.4925 55.6000 main 546 515 _________P____ -1 -15.4925 55.6000 TC 7 235
1909069S14058 1909 10 SI MM NOT_NAMED 1909-03-11 06:00:00 TS -15.7000 55.3000 main 515 485 _________O____ -1 -15.7000 55.3000 TC 7 234
1909069S14058 1909 10 SI MM NOT_NAMED 1909-03-11 09:00:00 TS -15.8999 55.0149 main 485 456 _________P____ -1 -15.8999 55.0149 TC 7 235
1909069S14058 1909 10 SI MM NOT_NAMED 1909-03-11 12:00:00 TS -16.1000 54.7000 main 456 418 _________O____ -1 -16.1000 54.7000 TC 8 240
1909069S14058 1909 10 SI MM NOT_NAMED 1909-03-11 15:00:00 TS -16.2925 54.3149 main 418 383 _________P____ -1 -16.2925 54.3149 TC 9 242
1909069S14058 1909 10 SI MM NOT_NAMED 1909-03-11 18:00:00 TS -16.5000 53.9000 main 383 352 _________O____ -1 -16.5000 53.9000 TC 9 241
1909069S14058 1909 10 SI MM NOT_NAMED 1909-03-11 21:00:00 TS -16.7425 53.4775 main 352 327 _________P____ -1 -16.7425 53.4775 TC 9 237
1909069S14058 1909 10 SI MM NOT_NAMED 1909-03-12 00:00:00 TS -17.0000 53.1000 main 327 307 _________O____ -1 -17.0000 53.1000 TC 8 232
1909069S14058 1909 10 SI MM NOT_NAMED 1909-03-12 03:00:00 TS -17.2424 52.8124 main 307 299 _________P____ -1 -17.2424 52.8124 TC 7 224
1909069S14058 1909 10 SI MM NOT_NAMED 1909-03-12 06:00:00 TS -17.5000 52.6000 main 305 300 _________O____ -1 -17.5000 52.6000 TC 7 213
1909069S14058 1909 10 SI MM NOT_NAMED 1909-03-12 09:00:00 TS -17.7849 52.4423 main 297 297 _________P____ -1 -17.7849 52.4423 TC 7 205
1909069S14058 1909 10 SI MM NOT_NAMED 1909-03-12 12:00:00 TS -18.1000 52.3000 main 299 285 _________O____ -1 -18.1000 52.3000 TC 7 206
1909069S14058 1909 10 SI MM NOT_NAMED 1909-03-12 15:00:00 TS -18.4425 52.1000 main 285 269 _________P____ -1 -18.4425 52.1000 TC 8 208
1909069S14058 1909 10 SI MM NOT_NAMED 1909-03-12 18:00:00 TS -18.8000 51.9000 main 272 262 _________O____ -1 -18.8000 51.9000 TC 8 206
1909069S14058 1909 10 SI MM NOT_NAMED 1909-03-12 21:00:00 TS -19.1875 51.7201 main 266 264 _________P____ -1 -19.1875 51.7201 TC 8 202
1909069S14058 1909 10 SI MM NOT_NAMED 1909-03-13 00:00:00 TS -19.5000 51.6000 main 267 267 _________O____ -1 -19.5000 51.6000 TC 5 197
1909069S14058 1909 10 SI MM NOT_NAMED 1909-03-13 03:00:00 TS -19.6300 51.5774 main 270 270 _________P____ -1 -19.6300 51.5774 TC 2 172
1909069S14058 1909 10 SI MM NOT_NAMED 1909-03-13 06:00:00 TS -19.7000 51.6000 main 273 273 _________O____ -1 -19.7000 51.6000 TC 2 176
1909069S14058 1909 10 SI MM NOT_NAMED 1909-03-13 09:00:00 TS -19.8425 51.6000 main 277 277 _________P____ -1 -19.8425 51.6000 TC 3 0
1909069S14058 1909 10 SI MM NOT_NAMED 1909-03-13 12:00:00 TS -20.0000 51.6000 main 284 284 _________O____ -1 -20.0000 51.6000 TC 3 0
1909069S14058 1909 10 SI MM NOT_NAMED 1909-03-13 15:00:00 TS -20.1500 51.5925 main 289 289 _________P____ -1 -20.1500 51.5925 TC 3 0
1909069S14058 1909 10 SI MM NOT_NAMED 1909-03-13 18:00:00 TS -20.3000 51.6000 main 294 294 _________O____ -1 -20.3000 51.6000 TC 3 170
1909069S14058 1909 10 SI MM NOT_NAMED 1909-03-13 21:00:00 TS -20.4200 51.6351 main 295 295 _________P____ -1 -20.4200 51.6351 TC 3 163
1909069S14058 1909 10 SI MM NOT_NAMED 1909-03-14 00:00:00 TS -20.6000 51.7000 main 309 309 _________O____ -1 -20.6000 51.7000 TC 5 164
1909069S14058 1909 10 SI MM NOT_NAMED 1909-03-14 03:00:00 TS -20.9200 51.7850 main 328 328 _________P____ -1 -20.9200 51.7850 TC 7 165
1909069S14058 1909 10 SI MM NOT_NAMED 1909-03-14 06:00:00 TS -21.3000 51.9000 main 342 334 _________O____ -1 -21.3000 51.9000 TC 8 163
1909069S14058 1909 10 SI MM NOT_NAMED 1909-03-14 09:00:00 TS -21.6725 52.0350 main 337 322 _________P____ -1 -21.6725 52.0350 TC 8 158
1909069S14058 1909 10 SI MM NOT_NAMED 1909-03-14 12:00:00 TS -22.0000 52.2000 main 326 314 _________O____ -1 -22.0000 52.2000 TC 6 150
1909069S14058 1909 10 SI MM NOT_NAMED 1909-03-14 15:00:00 TS -22.2225 52.3851 main 314 304 _________P____ -1 -22.2225 52.3851 TC 5 137
1909069S14058 1909 10 SI MM NOT_NAMED 1909-03-14 18:00:00 TS -22.4000 52.6000 main 304 290 _________O____ -1 -22.4000 52.6000 TC 5 132
1909069S14058 1909 10 SI MM NOT_NAMED 1909-03-14 21:00:00 TS -22.5848 52.8128 main 295 281 _________P____ -1 -22.5848 52.8128 TC 6 131
1909069S14058 1909 10 SI MM NOT_NAMED 1909-03-15 00:00:00 TS -22.8000 53.1000 main 281 272 _________O____ -1 -22.8000 53.1000 TC 8 128
1909069S14058 1909 10 SI MM NOT_NAMED 1909-03-15 03:00:00 TS -23.0850 53.5125 main 273 262 _________P____ -1 -23.0850 53.5125 TC 10 126
1909069S14058 1909 10 SI MM NOT_NAMED 1909-03-15 06:00:00 TS -23.4000 54.0000 main 270 265 _________O____ -1 -23.4000 54.0000 TC 11 125
1909069S14058 1909 10 SI MM NOT_NAMED 1909-03-15 09:00:00 TS -23.7149 54.4925 main 280 280 _________P____ -1 -23.7149 54.4925 TC 11 123
1909069S14058 1909 10 SI MM NOT_NAMED 1909-03-15 12:00:00 TS -24.0000 55.0000 main 297 295 _________O____ -1 -24.0000 55.0000 TC 10 119
1909069S14058 1909 10 SI MM NOT_NAMED 1909-03-15 15:00:00 TS -24.2148 55.4929 main 313 312 _________P____ -1 -24.2148 55.4929 TC 10 114
1909069S14058 1909 10 SI MM NOT_NAMED 1909-03-15 18:00:00 TS -24.4000 56.0000 main 337 337 _________O____ -1 -24.4000 56.0000 TC 10 112
1909069S14058 1909 10 SI MM NOT_NAMED 1909-03-15 21:00:00 TS -24.6150 56.5574 main 372 372 _________P____ -1 -24.6150 56.5574 TC 11 112
1909069S14058 1909 10 SI MM NOT_NAMED 1909-03-16 00:00:00 TS -24.8000 57.1000 main 409 409 _________O____ -1 -24.8000 57.1000 TC 10 108
1909069S14058 1909 10 SI MM NOT_NAMED 1909-03-16 03:00:00 TS -24.9072 57.5654 main 441 441 _________P____ -1 -24.9072 57.5654 TC 8 104
1909069S14058 1909 10 SI MM NOT_NAMED 1909-03-16 06:00:00 TS -25.0000 58.0000 main 470 470 _________O____ -1 -25.0000 58.0000 TC 9 106
1909069S14058 1909 10 SI MM NOT_NAMED 1909-03-16 09:00:00 TS -25.1500 58.4724 main 515 515 _________P____ -1 -25.1500 58.4724 TC 9 110
1909069S14058 1909 10 SI MM NOT_NAMED 1909-03-16 12:00:00 TS -25.3000 58.9000 main 547 547 _________O____ -1 -25.3000 58.9000 TC 7 111
1909069S14058 1909 10 SI MM NOT_NAMED 1909-03-16 15:00:00 TS -25.4073 59.2227 main 568 568 _________P____ -1 -25.4073 59.2227 TC 6 110
1909069S14058 1909 10 SI MM NOT_NAMED 1909-03-16 18:00:00 TS -25.5000 59.5000 main 588 588 _________O____ -1 -25.5000 59.5000 TC 5 110
1909069S14058 1909 10 SI MM NOT_NAMED 1909-03-16 21:00:00 TS -25.5977 59.7923 main 609 609 _________P____ -1 -25.5977 59.7923 TC 6 110
1909069S14058 1909 10 SI MM NOT_NAMED 1909-03-17 00:00:00 TS -25.7000 60.1000 main 630 _________O____ -1 -25.7000 60.1000 TC 6 110

IBTrACS Databaseについて

本データベースは、米国NOAAが公開する1842年以降の世界の熱帯低気圧のベストトラックデータアーカイブInternational Best Track Archive for Climate Stewardship (IBTrACS)を、ウェブで閲覧しやすい形式に変換したものです。

最終更新日:2021-11-26